This is the latest recevied weather packets stored in our database for station/object N7BTW-13. If no packets are shown the sender has not sent any weather packets the latest 10 day(s).
| Time | Temp. | Humidity | Pressure | Rain* | Wind** | Luminosity | Snow |
|---|---|---|---|---|---|---|---|
| 1788549606 | 17.78° C | 79% | - | 0 mm | - | - | - |
| 1788549007 | 17.78° C | 81% | - | 0 mm | - | - | - |
| 1788548407 | 18.89° C | 80% | - | 0 mm | - | - | - |
| 1788547807 | 17.78° C | 82% | - | 0 mm | - | - | - |
| 1788547207 | 17.78° C | 84% | - | 0 mm | - | - | - |
| 1788546606 | 17.78° C | 85% | - | 0 mm | - | - | - |
| 1788546006 | 17.78° C | 85% | - | 0 mm | - | - | - |
| 1788545407 | 17.22° C | 86% | - | 0 mm | - | - | - |
| 1788544806 | 18.33° C | 86% | - | 0 mm | - | - | - |
| 1788544206 | 16.11° C | 88% | - | 0 mm | - | - | - |
| 1788543606 | 15.56° C | 92% | - | 0 mm | - | - | - |
| 1788543008 | 15.56° C | 92% | - | 0 mm | - | - | - |
| 1788542406 | 15° C | 95% | - | 0 mm | - | - | - |
| 1788541808 | 15° C | 95% | - | 0 mm | - | - | - |
| 1788541206 | 15° C | 94% | - | 0 mm | - | - | - |
| 1788540607 | 15° C | 94% | - | 0 mm | - | - | - |
| 1788540007 | 14.44° C | 97% | - | 0 mm | - | - | - |
| 1788539407 | 14.44° C | 97% | - | 0 mm | - | - | - |
| 1788538806 | 13.89° C | 97% | - | 0 mm | - | - | - |
| 1788538234 | 13.89° C | 98% | - | 0 mm | - | - | - |
| 1788537607 | 13.33° C | 99% | - | 0 mm | - | - | - |
| 1788537006 | 13.33° C | 99% | - | 0 mm | - | - | - |
| 1788536407 | 13.33° C | 99% | - | 0 mm | - | - | - |
| 1788535806 | 12.78° C | 99% | - | 0 mm | - | - | - |
| 1788535221 | 12.78° C | 99% | - | 0 mm | - | - | - |
* Rain latest hour (hover to see other rain measurements)
** Current wind speed in m/s (hover to see current wind gust speed)